Time;durP1;ratioP1;P1;durP2;ratioP2;P2;SDS_P1;SDS_P2;PMS_P1;PMS_P2;Temp;Humidity;BMP_temperature;BMP_pressure;BME280_temperature;BME280_humidity;BME280_pressure;Samples;Min_cycle;Max_cycle;Signal;HPM_P1;HPM_P2
2021/04/30 00:03:30;;;;;;;26.23;11.63;;;;;;;;;;10132598;28;20523;-65
2021/04/30 00:08:27;;;;;;;16.50;7.87;;;;;;;;;;10134772;28;20608;-66
2021/04/30 00:13:25;;;;;;;11.17;6.20;;;;;;;;;;10137774;28;21031;-65
2021/04/30 00:18:23;;;;;;;28.05;13.95;;;;;;;;;;10122805;28;20031;-65
2021/04/30 00:23:25;;;;;;;31.53;17.20;;;;;;;;;;10122798;28;20031;-65
2021/04/30 00:28:23;;;;;;;28.23;14.05;;;;;;;;;;10124411;28;20031;-65
2021/04/30 00:33:21;;;;;;;27.77;17.53;;;;;;;;;;10133656;28;20387;-66
2021/04/30 00:38:19;;;;;;;22.10;12.65;;;;;;;;;;10133072;28;20556;-65
2021/04/30 00:43:17;;;;;;;23.93;14.67;;;;;;;;;;10112480;28;20044;-66
2021/04/30 00:48:15;;;;;;;30.27;17.40;;;;;;;;;;10123995;28;20504;-66
2021/04/30 00:53:13;;;;;;;25.83;14.35;;;;;;;;;;10121708;28;20398;-65
2021/04/30 00:58:10;;;;;;;27.00;15.33;;;;;;;;;;10129008;29;20034;-65
2021/04/30 01:03:08;;;;;;;26.83;14.37;;;;;;;;;;10120886;29;20058;-67
2021/04/30 01:08:06;;;;;;;25.08;14.27;;;;;;;;;;10132153;28;20420;-65
2021/04/30 01:13:03;;;;;;;22.43;13.60;;;;;;;;;;10122819;28;20046;-66
2021/04/30 01:18:01;;;;;;;20.30;10.93;;;;;;;;;;10126886;28;20178;-67
2021/04/30 01:22:58;;;;;;;16.30;10.37;;;;;;;;;;10126403;29;20043;-66
2021/04/30 01:27:56;;;;;;;18.27;10.97;;;;;;;;;;10110474;28;20039;-64
2021/04/30 01:32:54;;;;;;;19.37;9.60;;;;;;;;;;10111861;28;20130;-66
2021/04/30 01:37:52;;;;;;;22.77;12.68;;;;;;;;;;10113727;28;20115;-66
2021/04/30 01:42:58;;;;;;;22.52;9.95;;;;;;;;;;10123735;29;20536;-66
2021/04/30 01:47:56;;;;;;;24.50;12.95;;;;;;;;;;10118008;28;20039;-65
2021/04/30 01:52:53;;;;;;;19.47;11.33;;;;;;;;;;10127107;28;20070;-66
2021/04/30 01:57:50;;;;;;;22.67;13.77;;;;;;;;;;10121634;28;20043;-66
2021/04/30 02:02:49;;;;;;;24.67;13.17;;;;;;;;;;10134073;28;20102;-65
2021/04/30 02:07:46;;;;;;;26.25;11.55;;;;;;;;;;10127481;28;20693;-65
2021/04/30 02:12:44;;;;;;;23.83;14.37;;;;;;;;;;10126853;28;20477;-66
2021/04/30 02:17:41;;;;;;;17.10;10.97;;;;;;;;;;10130912;28;20536;-65
2021/04/30 02:22:39;;;;;;;11.60;8.17;;;;;;;;;;10133081;29;20082;-66
2021/04/30 02:27:37;;;;;;;15.07;5.77;;;;;;;;;;10134036;28;20043;-66
2021/04/30 02:32:34;;;;;;;18.67;11.00;;;;;;;;;;10141506;28;20412;-66
2021/04/30 02:37:32;;;;;;;9.80;6.43;;;;;;;;;;10138697;28;20067;-66
2021/04/30 02:42:29;;;;;;;15.43;9.47;;;;;;;;;;10144093;28;20040;-65
2021/04/30 02:47:30;;;;;;;18.13;10.33;;;;;;;;;;10140221;28;20519;-66
2021/04/30 02:52:28;;;;;;;16.77;10.98;;;;;;;;;;10141317;28;20039;-66
2021/04/30 02:57:28;;;;;;;17.20;9.10;;;;;;;;;;10145485;28;20039;-65
2021/04/30 03:02:25;;;;;;;12.32;6.85;;;;;;;;;;10156251;28;20527;-67
2021/04/30 03:07:23;;;;;;;9.87;4.87;;;;;;;;;;10157262;28;20145;-65
2021/04/30 03:12:20;;;;;;;12.73;8.30;;;;;;;;;;10157726;28;20353;-66
2021/04/30 03:17:17;;;;;;;13.77;7.23;;;;;;;;;;10157225;28;20118;-66
2021/04/30 03:22:15;;;;;;;11.17;3.80;;;;;;;;;;10157096;28;20047;-66
2021/04/30 03:27:12;;;;;;;14.23;7.83;;;;;;;;;;10147454;28;20577;-67
2021/04/30 03:32:09;;;;;;;20.07;10.43;;;;;;;;;;10157345;28;20540;-66
2021/04/30 03:37:07;;;;;;;16.40;8.83;;;;;;;;;;10142957;28;20039;-66
2021/04/30 03:42:04;;;;;;;13.93;7.77;;;;;;;;;;10157111;28;20043;-66
2021/04/30 03:47:02;;;;;;;21.30;12.23;;;;;;;;;;10157286;28;20035;-66
2021/04/30 03:51:59;;;;;;;20.53;11.03;;;;;;;;;;10156679;28;20039;-67
2021/04/30 03:56:57;;;;;;;18.60;10.97;;;;;;;;;;10156863;28;20040;-66
2021/04/30 04:01:55;;;;;;;22.48;12.18;;;;;;;;;;10156548;28;20031;-66
2021/04/30 04:06:52;;;;;;;24.93;14.27;;;;;;;;;;10153077;28;20046;-66
2021/04/30 04:11:49;;;;;;;16.17;9.77;;;;;;;;;;10148762;28;20130;-66
2021/04/30 04:16:47;;;;;;;15.47;9.10;;;;;;;;;;10148851;28;20031;-66
2021/04/30 04:21:44;;;;;;;7.37;4.60;;;;;;;;;;10113443;28;20028;-66
2021/04/30 04:26:42;;;;;;;6.50;4.47;;;;;;;;;;10136035;28;20046;-67
2021/04/30 04:31:39;;;;;;;7.80;4.87;;;;;;;;;;10133642;28;20068;-66
2021/04/30 04:36:36;;;;;;;7.80;4.60;;;;;;;;;;10125819;28;20040;-65
2021/04/30 04:41:34;;;;;;;7.50;4.20;;;;;;;;;;10117063;28;20035;-65
2021/04/30 04:46:31;;;;;;;9.77;4.53;;;;;;;;;;10124068;28;20472;-67
2021/04/30 04:51:28;;;;;;;7.00;4.77;;;;;;;;;;10129708;28;20138;-65
2021/04/30 04:56:26;;;;;;;6.63;3.77;;;;;;;;;;10130322;28;20047;-66
2021/04/30 05:01:24;;;;;;;6.33;3.63;;;;;;;;;;10129301;28;20123;-65
2021/04/30 05:06:22;;;;;;;7.43;4.43;;;;;;;;;;10135325;28;20043;-66
2021/04/30 05:11:21;;;;;;;5.13;3.83;;;;;;;;;;10112926;28;20047;-64
2021/04/30 05:16:18;;;;;;;7.30;3.43;;;;;;;;;;10131317;28;20046;-66
2021/04/30 05:21:17;;;;;;;7.57;4.50;;;;;;;;;;10131858;28;20400;-66
2021/04/30 05:26:15;;;;;;;7.35;3.92;;;;;;;;;;10127740;28;20050;-65
2021/04/30 05:31:12;;;;;;;5.27;3.50;;;;;;;;;;10113649;28;20070;-66
2021/04/30 05:36:10;;;;;;;6.30;3.33;;;;;;;;;;10120894;28;20040;-66
2021/04/30 05:41:07;;;;;;;5.67;3.77;;;;;;;;;;10112313;28;20043;-66
2021/04/30 05:46:04;;;;;;;5.87;3.80;;;;;;;;;;10106207;28;20274;-67
2021/04/30 05:51:02;;;;;;;5.17;3.83;;;;;;;;;;10118596;28;20050;-65
2021/04/30 05:55:59;;;;;;;4.40;3.17;;;;;;;;;;10111715;28;20070;-66
2021/04/30 06:00:57;;;;;;;3.83;3.37;;;;;;;;;;10129545;28;20124;-65
2021/04/30 06:05:55;;;;;;;5.03;3.37;;;;;;;;;;10108621;28;20062;-65
2021/04/30 06:10:52;;;;;;;4.33;2.83;;;;;;;;;;10116301;28;20023;-65
2021/04/30 06:15:49;;;;;;;4.17;2.67;;;;;;;;;;10108411;28;20120;-64
2021/04/30 06:20:47;;;;;;;4.57;2.47;;;;;;;;;;10109990;28;20035;-65
2021/04/30 06:25:44;;;;;;;4.20;2.97;;;;;;;;;;10112880;28;20035;-65
2021/04/30 06:30:42;;;;;;;8.30;4.30;;;;;;;;;;10099356;28;20070;-65
2021/04/30 06:35:39;;;;;;;7.53;3.20;;;;;;;;;;10120971;28;20054;-65
2021/04/30 06:40:37;;;;;;;5.33;3.53;;;;;;;;;;10128535;28;20047;-66
2021/04/30 06:45:34;;;;;;;11.73;5.30;;;;;;;;;;10125378;28;20042;-65
2021/04/30 06:50:31;;;;;;;8.03;4.83;;;;;;;;;;10117070;28;20031;-65
2021/04/30 06:55:29;;;;;;;7.57;4.60;;;;;;;;;;10117157;29;20094;-65
2021/04/30 07:00:26;;;;;;;10.33;5.67;;;;;;;;;;10129864;28;20058;-65
2021/04/30 07:05:24;;;;;;;8.43;4.87;;;;;;;;;;10113567;28;20071;-67
2021/04/30 07:10:23;;;;;;;9.77;5.57;;;;;;;;;;10124293;28;20046;-66
2021/04/30 07:15:20;;;;;;;8.38;5.60;;;;;;;;;;10120125;28;20039;-65
2021/04/30 07:20:18;;;;;;;13.60;6.50;;;;;;;;;;10118018;28;20042;-66
2021/04/30 07:25:15;;;;;;;8.83;6.50;;;;;;;;;;10114002;28;20057;-66
2021/04/30 07:30:13;;;;;;;15.93;7.50;;;;;;;;;;10112094;29;20051;-65
2021/04/30 07:35:11;;;;;;;7.43;4.97;;;;;;;;;;10103200;29;20051;-66
2021/04/30 07:40:09;;;;;;;12.80;5.67;;;;;;;;;;10120195;28;20369;-66
2021/04/30 07:45:06;;;;;;;7.68;4.35;;;;;;;;;;10107230;28;20159;-66
2021/04/30 07:50:05;;;;;;;5.30;3.97;;;;;;;;;;10126324;28;20505;-67
2021/04/30 07:55:02;;;;;;;3.45;3.15;;;;;;;;;;10108191;28;20135;-66
2021/04/30 08:00:00;;;;;;;5.77;2.87;;;;;;;;;;10108921;28;20142;-66
2021/04/30 08:04:57;;;;;;;5.10;3.33;;;;;;;;;;10121359;28;20461;-66
2021/04/30 08:09:55;;;;;;;6.70;3.60;;;;;;;;;;10124080;29;20450;-65
2021/04/30 08:14:53;;;;;;;7.97;4.38;;;;;;;;;;10028434;29;20524;-66
2021/04/30 08:19:55;;;;;;;5.33;3.77;;;;;;;;;;10093108;28;20031;-66
2021/04/30 08:24:52;;;;;;;5.75;3.67;;;;;;;;;;10120480;28;20040;-67
2021/04/30 08:29:50;;;;;;;3.90;3.10;;;;;;;;;;10111683;28;20035;-67
2021/04/30 08:34:47;;;;;;;7.60;5.40;;;;;;;;;;10112537;28;20347;-66
2021/04/30 08:39:45;;;;;;;7.93;4.53;;;;;;;;;;10120216;28;20044;-67
2021/04/30 08:44:42;;;;;;;6.77;4.23;;;;;;;;;;10123111;28;20522;-67
2021/04/30 08:49:40;;;;;;;6.83;4.57;;;;;;;;;;10123088;28;20053;-67
2021/04/30 08:54:38;;;;;;;8.30;4.43;;;;;;;;;;10119082;28;20038;-67
2021/04/30 08:59:35;;;;;;;5.63;3.83;;;;;;;;;;10121977;28;20039;-67
2021/04/30 09:04:34;;;;;;;5.38;3.42;;;;;;;;;;10116211;28;20032;-67
2021/04/30 09:09:31;;;;;;;4.85;3.80;;;;;;;;;;10121739;28;20402;-67
2021/04/30 09:14:32;;;;;;;4.80;3.03;;;;;;;;;;10116022;28;20043;-67
2021/04/30 09:19:34;;;;;;;4.75;3.33;;;;;;;;;;10112533;28;20070;-67
2021/04/30 09:24:32;;;;;;;4.85;2.67;;;;;;;;;;10116958;28;20134;-66
2021/04/30 09:29:34;;;;;;;7.10;2.87;;;;;;;;;;10114030;29;20578;-66
2021/04/30 09:34:35;;;;;;;2.55;2.25;;;;;;;;;;10116317;28;20094;-67
2021/04/30 09:39:46;;;;;;;5.15;2.13;;;;;;;;;;10110879;28;20050;-67
2021/04/30 09:44:45;;;;;;;2.47;1.63;;;;;;;;;;10118156;28;20027;-67
2021/04/30 09:49:43;;;;;;;4.82;3.20;;;;;;;;;;10117110;28;20050;-67
2021/04/30 09:54:41;;;;;;;2.30;1.80;;;;;;;;;;10110601;28;20045;-68
2021/04/30 09:59:40;;;;;;;8.55;4.68;;;;;;;;;;10092469;28;20046;-67
2021/04/30 10:04:39;;;;;;;3.10;2.35;;;;;;;;;;10118898;28;20511;-67
2021/04/30 10:09:37;;;;;;;1.90;1.80;;;;;;;;;;10125539;28;20039;-67
2021/04/30 10:14:34;;;;;;;2.05;1.50;;;;;;;;;;10123543;28;20531;-67
2021/04/30 10:19:31;;;;;;;4.77;3.33;;;;;;;;;;10117726;28;20031;-67
2021/04/30 10:24:29;;;;;;;1.77;1.67;;;;;;;;;;10122812;28;20042;-67
2021/04/30 10:29:29;;;;;;;1.67;1.33;;;;;;;;;;10114258;28;20027;-67
2021/04/30 10:34:28;;;;;;;3.67;3.20;;;;;;;;;;10123138;28;20050;-68
2021/04/30 10:39:28;;;;;;;3.67;2.67;;;;;;;;;;10112830;28;20031;-68
2021/04/30 10:44:32;;;;;;;11.80;8.43;;;;;;;;;;10110314;28;20501;-66
2021/04/30 10:49:29;;;;;;;13.35;10.30;;;;;;;;;;10111578;29;20118;-67
2021/04/30 10:54:28;;;;;;;12.73;9.57;;;;;;;;;;10109806;28;20070;-67
2021/04/30 10:59:26;;;;;;;11.23;9.57;;;;;;;;;;10117468;28;20580;-66
2021/04/30 11:04:26;;;;;;;4.60;3.35;;;;;;;;;;10124423;28;20134;-67
2021/04/30 11:09:39;;;;;;;5.82;2.97;;;;;;;;;;10124475;28;20088;-67
2021/04/30 11:14:36;;;;;;;2.08;1.92;;;;;;;;;;10126011;28;20047;-67
2021/04/30 11:19:43;;;;;;;3.80;3.30;;;;;;;;;;10127395;28;20454;-67
2021/04/30 11:24:42;;;;;;;9.98;7.47;;;;;;;;;;10131236;28;20034;-67
2021/04/30 11:29:40;;;;;;;2.08;1.83;;;;;;;;;;10128213;28;20168;-67
2021/04/30 11:34:49;;;;;;;5.95;2.70;;;;;;;;;;10133128;28;20138;-68
2021/04/30 11:39:47;;;;;;;2.05;1.92;;;;;;;;;;10125389;28;20039;-67
2021/04/30 11:44:45;;;;;;;6.68;4.95;;;;;;;;;;10111679;28;20054;-67
2021/04/30 11:49:42;;;;;;;6.03;5.00;;;;;;;;;;10140022;28;20031;-67
2021/04/30 11:54:40;;;;;;;7.33;4.97;;;;;;;;;;10122622;28;20042;-67
2021/04/30 11:59:39;;;;;;;5.25;4.22;;;;;;;;;;10123686;28;20519;-67
2021/04/30 12:04:40;;;;;;;3.88;3.20;;;;;;;;;;10124190;28;20511;-67
2021/04/30 12:09:37;;;;;;;10.10;6.97;;;;;;;;;;10122504;28;20429;-68
2021/04/30 12:14:44;;;;;;;9.95;7.80;;;;;;;;;;10130367;28;20035;-68
2021/04/30 12:19:52;;;;;;;5.72;3.67;;;;;;;;;;10120508;28;20517;-68
2021/04/30 12:24:49;;;;;;;10.93;8.73;;;;;;;;;;10122467;28;20054;-68
2021/04/30 12:29:50;;;;;;;11.75;8.75;;;;;;;;;;10127557;28;20290;-68
2021/04/30 12:34:48;;;;;;;10.38;7.70;;;;;;;;;;10116945;28;20090;-68
2021/04/30 12:39:47;;;;;;;12.40;9.90;;;;;;;;;;10135905;28;20027;-68
2021/04/30 12:44:59;;;;;;;14.48;10.77;;;;;;;;;;10113458;28;20039;-67
2021/04/30 12:49:56;;;;;;;11.68;8.88;;;;;;;;;;10134228;28;20086;-66
2021/04/30 12:54:54;;;;;;;9.67;6.63;;;;;;;;;;10133828;28;20093;-67
2021/04/30 12:59:58;;;;;;;13.27;10.37;;;;;;;;;;10131301;28;20036;-68
2021/04/30 13:04:56;;;;;;;8.13;6.28;;;;;;;;;;10128959;28;20046;-66
2021/04/30 13:09:53;;;;;;;12.60;9.05;;;;;;;;;;10129867;28;20046;-66
2021/04/30 13:14:55;;;;;;;15.60;13.63;;;;;;;;;;10133101;28;20047;-67
2021/04/30 13:20:11;;;;;;;9.73;7.38;;;;;;;;;;10130101;28;20404;-67
2021/04/30 13:25:12;;;;;;;15.20;9.00;;;;;;;;;;10117682;28;20062;-67
2021/04/30 13:30:10;;;;;;;15.23;9.68;;;;;;;;;;10115613;28;20032;-67
2021/04/30 13:35:08;;;;;;;8.30;5.70;;;;;;;;;;10094435;28;20256;-66
2021/04/30 13:40:09;;;;;;;11.07;7.77;;;;;;;;;;10116263;29;20031;-66
2021/04/30 13:45:08;;;;;;;17.20;12.68;;;;;;;;;;10118500;28;20046;-66
2021/04/30 13:50:07;;;;;;;10.50;7.10;;;;;;;;;;10131687;29;20047;-66
2021/04/30 13:55:05;;;;;;;18.25;14.20;;;;;;;;;;10126672;28;20777;-65
2021/04/30 14:00:05;;;;;;;18.48;14.85;;;;;;;;;;10125170;28;20036;-66
2021/04/30 14:05:11;;;;;;;13.80;7.68;;;;;;;;;;10127064;28;20799;-66
2021/04/30 14:10:09;;;;;;;9.73;6.53;;;;;;;;;;10127028;28;20036;-66
2021/04/30 14:15:06;;;;;;;;;;;;;;;;;;10128737;28;20043;-65
2021/04/30 14:20:04;;;;;;;6.72;3.95;;;;;;;;;;10123348;28;19915;-65
2021/04/30 14:25:02;;;;;;;18.37;13.40;;;;;;;;;;10124775;28;20066;-65
2021/04/30 14:30:02;;;;;;;15.75;13.13;;;;;;;;;;10132964;28;20074;-65
2021/04/30 14:35:00;;;;;;;4.68;3.33;;;;;;;;;;10124755;28;20502;-65
2021/04/30 14:39:57;;;;;;;13.73;9.33;;;;;;;;;;10132988;28;20121;-65
2021/04/30 14:44:55;;;;;;;15.10;10.20;;;;;;;;;;10125089;29;20390;-66
2021/04/30 14:49:52;;;;;;;17.40;13.37;;;;;;;;;;10128097;28;20043;-66
2021/04/30 14:54:50;;;;;;;23.30;15.10;;;;;;;;;;10133444;28;20083;-65
2021/04/30 14:59:47;;;;;;;3.80;3.00;;;;;;;;;;10127139;28;20048;-66
2021/04/30 15:04:44;;;;;;;11.03;7.23;;;;;;;;;;10130968;28;20042;-66
2021/04/30 15:09:43;;;;;;;12.40;8.77;;;;;;;;;;10130594;28;20547;-66
2021/04/30 15:14:41;;;;;;;16.00;9.73;;;;;;;;;;10126703;28;20542;-66
2021/04/30 15:19:38;;;;;;;7.20;4.93;;;;;;;;;;10121074;28;20899;-67
2021/04/30 15:24:36;;;;;;;13.63;8.57;;;;;;;;;;10125479;28;20040;-65
2021/04/30 15:29:33;;;;;;;18.37;14.07;;;;;;;;;;10128797;28;20059;-65
2021/04/30 15:34:34;;;;;;;9.43;6.20;;;;;;;;;;10120811;28;20334;-65
2021/04/30 15:39:32;;;;;;;4.43;3.53;;;;;;;;;;10119131;28;20033;-66
2021/04/30 15:44:30;;;;;;;3.93;2.63;;;;;;;;;;10114686;28;20039;-66
2021/04/30 15:49:28;;;;;;;13.85;9.82;;;;;;;;;;10116658;28;20035;-66
2021/04/30 15:54:26;;;;;;;16.00;13.10;;;;;;;;;;10131733;28;20131;-66
2021/04/30 15:59:23;;;;;;;15.03;10.47;;;;;;;;;;10124451;28;20136;-66
2021/04/30 16:04:21;;;;;;;3.17;2.37;;;;;;;;;;10127134;28;20858;-67
2021/04/30 16:09:18;;;;;;;7.10;4.47;;;;;;;;;;10132897;28;20482;-65
2021/04/30 16:14:15;;;;;;;8.50;5.57;;;;;;;;;;10126506;28;20135;-66
2021/04/30 16:19:14;;;;;;;16.53;12.17;;;;;;;;;;10138004;28;20050;-65
2021/04/30 16:24:12;;;;;;;17.73;13.75;;;;;;;;;;10126051;28;20323;-66
2021/04/30 16:29:10;;;;;;;7.87;6.63;;;;;;;;;;10138234;28;20132;-66
2021/04/30 16:34:07;;;;;;;12.20;8.53;;;;;;;;;;10136516;28;20039;-66
2021/04/30 16:39:05;;;;;;;11.57;7.90;;;;;;;;;;10119820;28;20037;-66
2021/04/30 16:44:04;;;;;;;7.67;5.20;;;;;;;;;;10119595;28;20032;-66
2021/04/30 16:49:01;;;;;;;;;;;;;;;;;;10130364;28;20039;-67
2021/04/30 16:54:00;;;;;;;14.63;9.97;;;;;;;;;;10127308;29;19924;-66
2021/04/30 16:59:00;;;;;;;9.68;6.13;;;;;;;;;;10121616;28;20186;-66
2021/04/30 17:03:57;;;;;;;8.07;5.37;;;;;;;;;;10127789;28;20114;-67
2021/04/30 17:08:55;;;;;;;16.20;10.57;;;;;;;;;;10128110;28;20275;-67
2021/04/30 17:13:52;;;;;;;9.97;7.67;;;;;;;;;;10121238;28;20044;-67
2021/04/30 17:18:50;;;;;;;7.57;3.43;;;;;;;;;;10119437;28;20065;-66
2021/04/30 17:23:48;;;;;;;7.77;4.43;;;;;;;;;;10109236;28;21271;-67
2021/04/30 17:28:46;;;;;;;11.18;7.55;;;;;;;;;;10122371;28;20578;-67
2021/04/30 17:33:43;;;;;;;7.30;3.75;;;;;;;;;;10109492;28;20036;-66
2021/04/30 17:38:40;;;;;;;14.77;6.67;;;;;;;;;;10047159;28;20074;-66
2021/04/30 17:43:38;;;;;;;17.47;11.30;;;;;;;;;;10045514;28;20043;-68
2021/04/30 17:48:36;;;;;;;9.73;5.10;;;;;;;;;;10035881;28;20047;-66
2021/04/30 17:53:34;;;;;;;14.07;9.43;;;;;;;;;;10040340;28;20737;-66
2021/04/30 17:58:31;;;;;;;12.25;7.47;;;;;;;;;;10057110;28;20047;-65
2021/04/30 18:03:29;;;;;;;7.47;4.00;;;;;;;;;;10083396;28;20043;-65
2021/04/30 18:08:30;;;;;;;12.93;9.20;;;;;;;;;;10086764;28;20036;-65
2021/04/30 18:13:28;;;;;;;6.28;2.53;;;;;;;;;;10086310;28;20071;-67
2021/04/30 18:18:26;;;;;;;3.38;2.50;;;;;;;;;;10088560;28;20051;-66
2021/04/30 18:23:26;;;;;;;6.63;3.93;;;;;;;;;;10085791;28;20058;-67
2021/04/30 18:28:24;;;;;;;4.68;3.78;;;;;;;;;;10091714;28;20058;-67
2021/04/30 18:33:24;;;;;;;2.87;2.47;;;;;;;;;;10124533;28;20044;-68
2021/04/30 18:38:22;;;;;;;5.35;3.60;;;;;;;;;;10089175;28;20202;-66
2021/04/30 18:43:20;;;;;;;6.63;3.77;;;;;;;;;;10090290;28;20094;-67
2021/04/30 18:48:17;;;;;;;7.87;3.73;;;;;;;;;;10089517;28;20035;-66
2021/04/30 18:53:15;;;;;;;8.30;3.03;;;;;;;;;;10083407;28;20067;-66
2021/04/30 18:58:15;;;;;;;4.03;2.93;;;;;;;;;;10079881;28;20051;-68
2021/04/30 19:03:12;;;;;;;5.07;3.25;;;;;;;;;;10077919;28;20035;-66
2021/04/30 19:08:10;;;;;;;4.03;2.60;;;;;;;;;;10079108;28;20121;-66
2021/04/30 19:13:07;;;;;;;7.30;3.67;;;;;;;;;;10080928;28;20048;-66
2021/04/30 19:18:08;;;;;;;4.23;2.97;;;;;;;;;;10084172;28;20043;-67
2021/04/30 19:23:06;;;;;;;5.38;2.75;;;;;;;;;;10132407;28;21358;-67
2021/04/30 19:28:07;;;;;;;3.40;3.00;;;;;;;;;;10126514;28;20126;-68
2021/04/30 19:33:05;;;;;;;3.10;2.58;;;;;;;;;;10084330;28;20059;-67
2021/04/30 19:38:02;;;;;;;1.97;1.87;;;;;;;;;;10088899;28;20142;-68
2021/04/30 19:43:01;;;;;;;3.53;2.70;;;;;;;;;;10130362;28;20505;-68
2021/04/30 19:47:58;;;;;;;3.00;2.70;;;;;;;;;;10087426;28;20134;-67
2021/04/30 19:52:56;;;;;;;5.50;3.50;;;;;;;;;;10097337;28;20607;-66
2021/04/30 19:57:54;;;;;;;4.90;3.50;;;;;;;;;;10088232;28;20082;-66
2021/04/30 20:02:52;;;;;;;4.18;3.20;;;;;;;;;;10087724;28;20023;-66
2021/04/30 20:07:49;;;;;;;7.27;3.43;;;;;;;;;;10079743;28;20078;-66
2021/04/30 20:12:47;;;;;;;5.53;3.90;;;;;;;;;;10099330;28;20163;-66
2021/04/30 20:17:44;;;;;;;7.30;4.43;;;;;;;;;;10101119;28;20226;-66
2021/04/30 20:22:42;;;;;;;6.40;3.80;;;;;;;;;;10106349;29;20031;-65
2021/04/30 20:27:40;;;;;;;7.43;3.63;;;;;;;;;;10105962;28;20094;-65
2021/04/30 20:32:38;;;;;;;6.95;4.32;;;;;;;;;;10103076;28;20046;-66
2021/04/30 20:37:36;;;;;;;4.70;4.17;;;;;;;;;;10101811;28;20533;-66
2021/04/30 20:42:33;;;;;;;4.93;3.10;;;;;;;;;;10103367;28;20540;-66
2021/04/30 20:47:34;;;;;;;5.87;4.10;;;;;;;;;;10105156;28;20612;-67
2021/04/30 20:52:31;;;;;;;5.30;3.20;;;;;;;;;;10140160;28;21148;-66
2021/04/30 20:57:29;;;;;;;5.13;3.63;;;;;;;;;;10154286;28;20046;-67
2021/04/30 21:02:27;;;;;;;5.80;3.78;;;;;;;;;;10164951;28;20039;-67
2021/04/30 21:07:25;;;;;;;5.23;2.93;;;;;;;;;;10161922;28;20035;-66
2021/04/30 21:12:40;;;;;;;5.97;3.27;;;;;;;;;;10152533;28;20130;-67
2021/04/30 21:17:38;;;;;;;4.43;3.08;;;;;;;;;;10161696;28;20034;-67
2021/04/30 21:22:36;;;;;;;4.63;3.40;;;;;;;;;;10169286;28;20565;-68
2021/04/30 21:27:33;;;;;;;6.03;3.37;;;;;;;;;;10167520;28;20110;-66
2021/04/30 21:32:31;;;;;;;5.57;3.63;;;;;;;;;;10150461;28;20086;-66
2021/04/30 21:37:28;;;;;;;6.37;4.00;;;;;;;;;;10164696;28;20031;-67
2021/04/30 21:42:28;;;;;;;7.03;2.60;;;;;;;;;;10162001;28;20481;-65
2021/04/30 21:47:25;;;;;;;10.05;6.05;;;;;;;;;;10164114;28;20453;-65
2021/04/30 21:52:23;;;;;;;19.10;13.20;;;;;;;;;;10158424;28;20034;-66
2021/04/30 21:57:21;;;;;;;22.33;15.98;;;;;;;;;;10143637;28;20055;-66
2021/04/30 22:02:19;;;;;;;26.55;16.23;;;;;;;;;;10144541;28;20039;-66
2021/04/30 22:07:16;;;;;;;23.80;15.73;;;;;;;;;;10149193;28;20167;-66
2021/04/30 22:12:15;;;;;;;23.07;16.17;;;;;;;;;;10165212;28;20030;-66
2021/04/30 22:17:15;;;;;;;24.02;16.40;;;;;;;;;;10160432;28;20054;-67
2021/04/30 22:22:13;;;;;;;23.20;16.10;;;;;;;;;;10144821;28;20077;-67
2021/04/30 22:27:10;;;;;;;23.87;14.93;;;;;;;;;;10139854;28;20092;-66
2021/04/30 22:32:08;;;;;;;24.20;15.50;;;;;;;;;;10135745;28;20046;-66
2021/04/30 22:37:05;;;;;;;14.23;10.07;;;;;;;;;;10110160;28;21575;-67
2021/04/30 22:42:03;;;;;;;25.23;14.53;;;;;;;;;;10101984;28;20509;-67
2021/04/30 22:47:00;;;;;;;22.73;15.93;;;;;;;;;;10105938;28;20125;-65
2021/04/30 22:51:57;;;;;;;28.83;18.00;;;;;;;;;;10109968;28;20097;-66
2021/04/30 22:56:55;;;;;;;24.40;16.93;;;;;;;;;;10096317;28;20588;-66
2021/04/30 23:01:52;;;;;;;27.23;18.57;;;;;;;;;;10102784;28;20061;-66
2021/04/30 23:06:50;;;;;;;25.57;17.90;;;;;;;;;;10130321;28;20035;-66
2021/04/30 23:11:47;;;;;;;23.43;16.90;;;;;;;;;;10121365;28;20508;-67
2021/04/30 23:16:45;;;;;;;30.70;19.30;;;;;;;;;;10146335;28;20516;-65
2021/04/30 23:21:43;;;;;;;28.15;18.45;;;;;;;;;;10148928;28;20261;-66
2021/04/30 23:26:40;;;;;;;26.27;17.83;;;;;;;;;;10114346;28;20054;-65
2021/04/30 23:31:38;;;;;;;29.63;17.87;;;;;;;;;;10141548;28;20039;-65
2021/04/30 23:36:36;;;;;;;29.43;18.30;;;;;;;;;;10130283;28;20108;-66
2021/04/30 23:41:34;;;;;;;27.67;18.05;;;;;;;;;;10155605;28;20053;-68
2021/04/30 23:46:34;;;;;;;20.20;13.48;;;;;;;;;;10144776;28;20554;-67
2021/04/30 23:51:32;;;;;;;27.48;17.05;;;;;;;;;;10162317;28;20085;-66
2021/04/30 23:56:29;;;;;;;28.73;17.97;;;;;;;;;;10161918;28;20077;-67
